createdAt,value
2022-09-30T00:02:35.387Z,100.00
2022-09-30T00:07:39.922Z,100.00
2022-09-30T00:12:42.934Z,100.00
2022-09-30T00:17:46.023Z,100.00
2022-09-30T00:22:50.463Z,100.00
2022-09-30T00:27:53.471Z,100.00
2022-09-30T00:32:56.602Z,100.00
2022-09-30T00:38:01.238Z,100.00
2022-09-30T00:43:04.351Z,100.00
2022-09-30T00:48:11.111Z,100.00
2022-09-30T00:53:19.908Z,100.00
2022-09-30T00:58:29.095Z,100.00
2022-09-30T01:03:35.062Z,100.00
2022-09-30T01:08:41.582Z,100.00
2022-09-30T01:13:48.246Z,100.00
2022-09-30T01:19:05.465Z,100.00
2022-09-30T01:24:42.284Z,100.00
2022-09-30T01:30:12.506Z,100.00
2022-09-30T01:35:24.455Z,100.00
2022-09-30T01:40:41.169Z,100.00
2022-09-30T01:45:50.627Z,100.00
2022-09-30T01:51:01.828Z,100.00
2022-09-30T01:56:13.740Z,100.00
2022-09-30T02:01:22.798Z,100.00
2022-09-30T02:06:32.294Z,100.00
2022-09-30T02:11:37.389Z,100.00
2022-09-30T02:16:43.672Z,100.00
2022-09-30T02:21:57.141Z,100.00
2022-09-30T02:27:02.572Z,100.00
2022-09-30T02:32:13.450Z,100.00
2022-09-30T02:37:22.499Z,100.00
2022-09-30T02:42:28.847Z,100.00
2022-09-30T02:47:44.933Z,100.00
2022-09-30T02:53:02.936Z,100.00
2022-09-30T02:58:13.077Z,100.00
2022-09-30T03:03:21.630Z,100.00
2022-09-30T03:08:27.305Z,100.00
2022-09-30T03:13:57.048Z,100.00
2022-09-30T03:19:14.603Z,100.00
2022-09-30T03:24:36.213Z,100.00
2022-09-30T03:29:48.618Z,100.00
2022-09-30T03:35:04.682Z,100.00
2022-09-30T03:40:17.691Z,100.00
2022-09-30T03:45:30.697Z,100.00
2022-09-30T03:50:36.478Z,100.00
2022-09-30T03:55:54.279Z,100.00
2022-09-30T04:01:00.209Z,100.00
2022-09-30T04:06:03.850Z,100.00
2022-09-30T04:11:08.396Z,100.00
2022-09-30T04:16:11.669Z,100.00
2022-09-30T04:21:18.403Z,100.00
2022-09-30T04:26:23.202Z,100.00
2022-09-30T04:31:27.003Z,100.00
2022-09-30T04:36:33.265Z,100.00
2022-09-30T04:41:38.341Z,100.00
2022-09-30T04:46:44.179Z,100.00
2022-09-30T04:51:47.504Z,100.00
2022-09-30T04:56:52.327Z,100.00
2022-09-30T05:01:55.426Z,100.00
2022-09-30T05:07:01.971Z,100.00
2022-09-30T05:12:06.783Z,100.00
2022-09-30T05:17:10.218Z,100.00
2022-09-30T05:22:14.157Z,100.00
2022-09-30T05:27:18.865Z,100.00
2022-09-30T05:32:22.646Z,100.00
2022-09-30T05:37:25.891Z,100.00
2022-09-30T05:42:32.630Z,100.00
2022-09-30T05:47:35.787Z,100.00
2022-09-30T05:52:38.874Z,100.00
2022-09-30T05:57:43.551Z,100.00
2022-09-30T06:02:46.749Z,100.00
2022-09-30T06:07:50.440Z,100.00
2022-09-30T06:12:54.929Z,100.00
2022-09-30T06:18:00.677Z,100.00
2022-09-30T06:23:04.629Z,100.00
2022-09-30T06:28:08.949Z,100.00
2022-09-30T06:33:12.659Z,100.00
2022-09-30T06:38:17.296Z,100.00
2022-09-30T06:43:22.051Z,100.00
2022-09-30T06:48:36.627Z,100.00
2022-09-30T06:53:41.880Z,100.00
2022-09-30T06:58:46.777Z,100.00
2022-09-30T07:03:54.031Z,100.00
2022-09-30T07:08:57.878Z,100.00
2022-09-30T07:14:04.509Z,100.00
2022-09-30T07:19:10.359Z,100.00
2022-09-30T07:24:15.323Z,100.00
2022-09-30T07:29:19.761Z,100.00
2022-09-30T07:34:22.903Z,100.00
2022-09-30T07:39:26.320Z,100.00
2022-09-30T07:44:31.638Z,100.00
2022-09-30T07:49:34.819Z,100.00
2022-09-30T07:54:42.508Z,100.00
2022-09-30T07:59:48.928Z,100.00
2022-09-30T08:04:52.145Z,100.00
2022-09-30T08:09:55.521Z,100.00
2022-09-30T08:15:00.191Z,100.00
2022-09-30T08:20:03.284Z,100.00
2022-09-30T08:25:07.510Z,100.00
2022-09-30T08:30:13.283Z,100.00
2022-09-30T08:35:16.619Z,100.00
2022-09-30T08:40:22.895Z,100.00
2022-09-30T08:45:37.516Z,100.00
2022-09-30T08:50:53.039Z,100.00
2022-09-30T08:56:02.786Z,100.00
2022-09-30T09:01:18.004Z,100.00
2022-09-30T09:06:37.470Z,100.00
2022-09-30T09:11:54.747Z,100.00
2022-09-30T09:17:15.406Z,100.00
2022-09-30T09:22:23.849Z,100.00
2022-09-30T09:27:37.106Z,100.00
2022-09-30T09:32:43.278Z,100.00
2022-09-30T09:38:15.338Z,99.89
2022-09-30T09:43:27.541Z,100.00
2022-09-30T09:48:36.404Z,95.79
2022-09-30T09:53:45.915Z,93.73
2022-09-30T09:59:10.510Z,91.30
2022-09-30T10:04:19.166Z,88.55
2022-09-30T10:09:31.861Z,88.21
2022-09-30T10:14:36.989Z,87.32
2022-09-30T10:19:49.068Z,87.13
2022-09-30T10:25:09.874Z,83.62
2022-09-30T10:30:12.925Z,84.12
2022-09-30T10:35:23.710Z,82.42
2022-09-30T10:40:32.054Z,83.04
2022-09-30T10:45:41.376Z,82.47
2022-09-30T10:50:51.874Z,81.19
2022-09-30T10:55:56.315Z,82.18
2022-09-30T11:01:08.195Z,81.40
2022-09-30T11:06:16.337Z,80.95
2022-09-30T11:11:23.046Z,82.50
2022-09-30T11:16:33.390Z,84.46
2022-09-30T11:21:43.401Z,81.47
2022-09-30T11:26:59.264Z,83.45
2022-09-30T11:32:15.451Z,82.79
2022-09-30T11:37:29.948Z,82.41
2022-09-30T11:42:41.336Z,83.73
2022-09-30T11:47:59.817Z,79.67
2022-09-30T11:53:19.104Z,81.39
2022-09-30T11:58:40.898Z,85.50
2022-09-30T12:03:51.038Z,84.89
2022-09-30T12:09:00.914Z,83.57
2022-09-30T12:14:11.926Z,85.24
2022-09-30T12:19:23.052Z,85.77
2022-09-30T12:24:36.963Z,79.87
2022-09-30T12:30:01.014Z,81.62
2022-09-30T12:35:24.657Z,81.49
2022-09-30T12:40:45.164Z,81.42
2022-09-30T12:46:05.420Z,79.29
2022-09-30T12:51:09.603Z,76.88
2022-09-30T12:56:16.761Z,76.28
2022-09-30T13:01:24.282Z,83.26
2022-09-30T13:06:29.504Z,80.16
2022-09-30T13:11:45.333Z,77.28
2022-09-30T13:17:20.242Z,73.06
2022-09-30T13:22:57.640Z,73.84
2022-09-30T13:28:32.249Z,75.89
2022-09-30T13:33:44.660Z,77.60
2022-09-30T13:38:48.013Z,78.60
2022-09-30T13:44:03.366Z,79.99
2022-09-30T13:49:13.469Z,83.04
2022-09-30T13:54:26.585Z,75.32
2022-09-30T13:59:49.431Z,75.23
2022-09-30T14:05:23.183Z,72.92
2022-09-30T14:10:58.884Z,69.30
2022-09-30T14:16:33.609Z,74.34
2022-09-30T14:21:40.817Z,76.78
2022-09-30T14:27:04.777Z,75.03
2022-09-30T14:32:19.947Z,82.63
2022-09-30T14:37:28.847Z,82.91
2022-09-30T14:42:36.833Z,85.23
2022-09-30T14:47:46.579Z,80.49
2022-09-30T14:52:57.089Z,81.55
2022-09-30T14:58:23.443Z,76.60
2022-09-30T15:03:29.128Z,83.78
2022-09-30T15:08:32.543Z,82.19
2022-09-30T15:13:36.216Z,87.14
2022-09-30T15:18:47.987Z,83.73
2022-09-30T15:23:53.892Z,85.15
2022-09-30T15:28:56.969Z,86.88
2022-09-30T15:34:13.741Z,82.62
2022-09-30T15:39:23.700Z,83.36
2022-09-30T15:44:39.059Z,80.81
2022-09-30T15:49:50.428Z,85.74
2022-09-30T15:54:53.537Z,84.68
2022-09-30T16:00:02.320Z,84.40
2022-09-30T16:05:09.183Z,89.35
2022-09-30T16:10:22.174Z,89.00
2022-09-30T16:15:25.529Z,87.15
2022-09-30T16:20:30.229Z,89.99
2022-09-30T16:25:34.470Z,89.52
2022-09-30T16:30:42.617Z,89.62
2022-09-30T16:35:48.304Z,88.96
2022-09-30T16:40:51.368Z,90.39
2022-09-30T16:45:54.658Z,88.77
2022-09-30T16:51:06.666Z,88.24
2022-09-30T16:56:16.191Z,89.75
2022-09-30T17:01:21.522Z,88.77
2022-09-30T17:06:29.811Z,90.70
2022-09-30T17:11:36.205Z,90.39
2022-09-30T17:16:39.227Z,90.28
2022-09-30T17:21:43.685Z,89.60
2022-09-30T17:26:46.719Z,90.13
2022-09-30T17:31:50.044Z,90.45
2022-09-30T17:36:55.613Z,90.04
2022-09-30T17:42:16.517Z,91.55
2022-09-30T17:47:21.458Z,92.17
2022-09-30T17:52:33.111Z,90.63
2022-09-30T17:57:40.013Z,93.01
2022-09-30T18:02:44.817Z,92.15
2022-09-30T18:07:49.293Z,92.72
2022-09-30T18:12:55.141Z,93.17
2022-09-30T18:18:00.390Z,92.86
2022-09-30T18:23:05.018Z,92.74
2022-09-30T18:28:08.945Z,93.26
2022-09-30T18:33:11.952Z,92.67
2022-09-30T18:38:16.392Z,92.40
2022-09-30T18:43:20.567Z,93.20
2022-09-30T18:48:27.353Z,92.81
2022-09-30T18:53:34.778Z,92.48
2022-09-30T18:58:39.408Z,92.86
2022-09-30T19:03:42.676Z,92.88
2022-09-30T19:08:47.159Z,91.96
2022-09-30T19:13:53.163Z,92.74
2022-09-30T19:18:57.629Z,92.18
2022-09-30T19:24:06.620Z,92.51
2022-09-30T19:29:12.003Z,92.41
2022-09-30T19:34:26.114Z,93.11
2022-09-30T19:39:45.584Z,91.16
2022-09-30T19:44:49.489Z,92.24
2022-09-30T19:49:52.572Z,92.48
2022-09-30T19:55:08.005Z,92.26
2022-09-30T20:00:16.572Z,92.64
2022-09-30T20:05:19.594Z,91.58
2022-09-30T20:10:24.102Z,90.85
2022-09-30T20:15:46.374Z,91.04
2022-09-30T20:20:50.042Z,91.64
2022-09-30T20:25:55.260Z,91.74
2022-09-30T20:30:58.306Z,92.38
2022-09-30T20:36:01.686Z,92.23
2022-09-30T20:41:07.836Z,91.39
2022-09-30T20:46:11.828Z,91.58
2022-09-30T20:51:17.575Z,91.56
2022-09-30T20:56:23.463Z,91.80
2022-09-30T21:01:26.531Z,91.72
2022-09-30T21:06:31.062Z,92.17
2022-09-30T21:11:35.586Z,92.99
2022-09-30T21:16:38.942Z,93.47
2022-09-30T21:21:42.028Z,94.95
2022-09-30T21:26:46.554Z,96.74
2022-09-30T21:31:49.788Z,98.48
2022-09-30T21:36:52.857Z,99.61
2022-09-30T21:41:57.629Z,100.00
2022-09-30T21:47:03.499Z,100.00
2022-09-30T21:52:09.273Z,100.00
2022-09-30T21:57:13.838Z,100.00
2022-09-30T22:02:17.040Z,100.00
2022-09-30T22:07:21.846Z,100.00
2022-09-30T22:12:26.359Z,100.00
2022-09-30T22:17:31.313Z,100.00
2022-09-30T22:22:34.697Z,100.00
2022-09-30T22:27:39.039Z,100.00
2022-09-30T22:32:42.074Z,100.00
2022-09-30T22:37:58.949Z,100.00
2022-09-30T22:43:33.537Z,100.00
2022-09-30T22:48:37.020Z,100.00
2022-09-30T22:53:39.979Z,100.00
2022-09-30T22:58:46.804Z,100.00
2022-09-30T23:03:54.139Z,100.00
2022-09-30T23:08:58.487Z,100.00
2022-09-30T23:14:03.961Z,100.00
2022-09-30T23:19:07.071Z,100.00
2022-09-30T23:24:10.780Z,100.00
2022-09-30T23:29:16.051Z,100.00
2022-09-30T23:34:19.245Z,100.00
2022-09-30T23:39:22.407Z,100.00
2022-09-30T23:44:28.646Z,100.00
2022-09-30T23:49:35.856Z,100.00
2022-09-30T23:54:39.002Z,100.00
2022-09-30T23:59:43.320Z,100.00
